createdAt,value
2022-10-29T00:00:50.441Z,7.07
2022-10-29T00:03:17.425Z,7.97
2022-10-29T00:05:43.972Z,7.47
2022-10-29T00:08:10.574Z,7.07
2022-10-29T00:10:37.094Z,7.67
2022-10-29T00:13:03.723Z,7.63
2022-10-29T00:15:30.508Z,8.30
2022-10-29T00:17:57.549Z,8.17
2022-10-29T00:20:24.425Z,7.07
2022-10-29T00:22:54.295Z,7.93
2022-10-29T00:25:21.191Z,7.40
2022-10-29T00:27:47.778Z,8.00
2022-10-29T00:30:14.421Z,7.23
2022-10-29T00:32:40.976Z,8.00
2022-10-29T00:35:07.820Z,8.53
2022-10-29T00:37:35.726Z,7.60
2022-10-29T00:40:02.712Z,7.90
2022-10-29T00:42:29.295Z,7.50
2022-10-29T00:44:55.869Z,7.73
2022-10-29T00:47:35.639Z,7.30
2022-10-29T00:50:07.961Z,8.33
2022-10-29T00:52:39.355Z,7.80
2022-10-29T00:55:08.592Z,7.87
2022-10-29T00:57:41.867Z,7.43
2022-10-29T01:00:09.202Z,8.10
2022-10-29T01:02:38.022Z,7.70
2022-10-29T01:05:05.511Z,8.27
2022-10-29T01:07:32.672Z,7.20
2022-10-29T01:09:59.384Z,7.43
2022-10-29T01:12:46.918Z,7.70
2022-10-29T01:15:21.072Z,7.90
2022-10-29T01:18:09.446Z,7.70
2022-10-29T01:21:03.410Z,7.57
2022-10-29T01:24:18.874Z,7.47
2022-10-29T01:27:10.586Z,7.07
2022-10-29T01:30:05.809Z,7.20
2022-10-29T01:33:00.548Z,6.77
2022-10-29T01:35:27.038Z,7.33
2022-10-29T01:38:14.827Z,6.93
2022-10-29T01:40:53.566Z,7.30
2022-10-29T01:43:31.708Z,7.10
2022-10-29T01:46:20.251Z,7.10
2022-10-29T01:48:51.115Z,6.77
2022-10-29T01:51:22.446Z,8.17
2022-10-29T01:53:49.776Z,7.00
2022-10-29T01:56:16.635Z,6.73
2022-10-29T01:58:48.823Z,7.50
2022-10-29T02:01:47.883Z,7.20
2022-10-29T02:04:20.446Z,6.80
2022-10-29T02:07:22.907Z,7.80
2022-10-29T02:10:05.016Z,7.63
2022-10-29T02:12:37.739Z,7.00
2022-10-29T02:15:09.460Z,7.90
2022-10-29T02:17:36.830Z,7.40
2022-10-29T02:20:09.005Z,7.50
2022-10-29T02:22:35.904Z,8.30
2022-10-29T02:25:03.846Z,8.07
2022-10-29T02:27:30.428Z,8.00
2022-10-29T02:29:56.951Z,7.90
2022-10-29T02:32:23.792Z,8.27
2022-10-29T02:34:50.409Z,7.77
2022-10-29T02:37:16.938Z,8.23
2022-10-29T02:39:43.514Z,8.23
2022-10-29T02:42:10.410Z,7.83
2022-10-29T02:44:36.997Z,8.33
2022-10-29T02:47:03.565Z,9.13
2022-10-29T02:49:30.137Z,9.50
2022-10-29T02:51:56.654Z,9.57
2022-10-29T02:54:23.203Z,9.77
2022-10-29T02:56:49.768Z,9.03
2022-10-29T02:59:16.279Z,10.17
2022-10-29T03:01:42.979Z,10.23
2022-10-29T03:04:11.541Z,9.40
2022-10-29T03:06:38.273Z,9.97
2022-10-29T03:09:05.347Z,10.73
2022-10-29T03:11:32.396Z,10.27
2022-10-29T03:13:58.985Z,9.77
2022-10-29T03:16:25.632Z,9.90
2022-10-29T03:18:52.184Z,9.57
2022-10-29T03:21:18.736Z,10.33
2022-10-29T03:23:45.284Z,10.20
2022-10-29T03:26:11.835Z,10.93
2022-10-29T03:28:38.450Z,9.77
2022-10-29T03:31:05.384Z,9.47
2022-10-29T03:33:31.932Z,10.57
2022-10-29T03:36:04.276Z,9.60
2022-10-29T03:38:30.881Z,9.10
2022-10-29T03:40:57.949Z,9.90
2022-10-29T03:43:25.062Z,10.17
2022-10-29T03:45:53.959Z,10.87
2022-10-29T03:48:21.737Z,10.27
2022-10-29T03:51:02.418Z,10.70
2022-10-29T03:53:29.439Z,10.10
2022-10-29T03:55:57.152Z,9.80
2022-10-29T03:58:24.979Z,10.33
2022-10-29T04:01:02.276Z,10.57
2022-10-29T04:03:30.565Z,10.33
2022-10-29T04:05:58.816Z,9.53
2022-10-29T04:08:26.157Z,9.83
2022-10-29T04:10:53.622Z,10.27
2022-10-29T04:13:20.756Z,10.80
2022-10-29T04:15:47.449Z,10.77
2022-10-29T04:18:14.047Z,10.80
2022-10-29T04:21:26.591Z,10.73
2022-10-29T04:29:02.411Z,9.87
2022-10-29T04:31:28.997Z,10.27
2022-10-29T04:33:56.116Z,10.40
2022-10-29T04:36:22.669Z,9.73
2022-10-29T04:38:50.770Z,10.10
2022-10-29T04:41:17.400Z,10.07
2022-10-29T04:43:43.931Z,10.03
2022-10-29T04:46:10.823Z,11.33
2022-10-29T04:48:37.766Z,9.93
2022-10-29T04:51:04.909Z,10.63
2022-10-29T04:53:31.571Z,10.73
2022-10-29T04:56:02.110Z,10.40
2022-10-29T04:58:29.198Z,11.23
2022-10-29T05:01:02.311Z,11.07
2022-10-29T05:03:28.964Z,10.83
2022-10-29T05:05:55.487Z,10.97
2022-10-29T05:08:22.058Z,11.53
2022-10-29T05:10:48.636Z,12.10
2022-10-29T05:13:15.436Z,10.37
2022-10-29T05:15:42.015Z,10.30
2022-10-29T05:18:09.779Z,10.17
2022-10-29T05:20:36.314Z,9.80
2022-10-29T05:23:04.997Z,10.20
2022-10-29T05:25:33.385Z,10.40
2022-10-29T05:28:05.132Z,9.23
2022-10-29T05:30:32.945Z,8.93
2022-10-29T05:32:59.886Z,8.10
2022-10-29T05:35:26.950Z,8.37
2022-10-29T05:37:55.064Z,8.53
2022-10-29T05:40:22.137Z,8.57
2022-10-29T05:42:48.917Z,8.97
2022-10-29T05:45:16.059Z,7.63
2022-10-29T05:47:42.908Z,7.53
2022-10-29T05:50:10.176Z,7.70
2022-10-29T05:52:36.768Z,7.60
2022-10-29T05:55:03.601Z,7.13
2022-10-29T05:57:30.142Z,8.20
2022-10-29T05:59:56.819Z,6.80
2022-10-29T06:02:23.458Z,7.27
2022-10-29T06:04:50.330Z,8.13
2022-10-29T06:07:16.876Z,7.90
2022-10-29T06:09:43.431Z,6.67
2022-10-29T06:12:09.996Z,6.60
2022-10-29T06:14:36.546Z,7.23
2022-10-29T06:17:03.122Z,6.33
2022-10-29T06:19:29.709Z,6.43
2022-10-29T06:21:59.453Z,6.17
2022-10-29T06:24:27.420Z,6.57
2022-10-29T06:26:54.465Z,5.87
2022-10-29T06:29:21.240Z,6.50
2022-10-29T06:31:47.828Z,6.73
2022-10-29T06:34:14.747Z,7.07
2022-10-29T06:36:41.450Z,6.03
2022-10-29T06:39:07.999Z,6.60
2022-10-29T06:41:34.796Z,6.90
2022-10-29T06:44:01.567Z,7.37
2022-10-29T06:46:28.113Z,6.37
2022-10-29T06:48:54.761Z,6.80
2022-10-29T06:53:54.679Z,6.20
2022-10-29T06:56:21.708Z,6.53
2022-10-29T06:58:48.228Z,6.10
2022-10-29T07:01:14.794Z,6.27
2022-10-29T07:03:41.387Z,5.70
2022-10-29T07:06:07.967Z,5.83
2022-10-29T07:08:34.473Z,6.37
2022-10-29T07:11:02.732Z,6.40
2022-10-29T07:13:29.295Z,6.00
2022-10-29T07:15:55.827Z,7.37
2022-10-29T07:18:22.377Z,6.90
2022-10-29T07:20:48.936Z,6.10
2022-10-29T07:23:15.529Z,6.43
2022-10-29T07:25:42.120Z,6.77
2022-10-29T07:28:16.369Z,6.47
2022-10-29T07:30:44.027Z,6.30
2022-10-29T07:33:10.928Z,7.13
2022-10-29T07:35:37.987Z,6.07
2022-10-29T07:38:09.060Z,6.00
2022-10-29T07:40:37.677Z,5.70
2022-10-29T07:43:04.271Z,5.60
2022-10-29T07:45:30.841Z,6.00
2022-10-29T07:48:03.095Z,5.27
2022-10-29T07:50:31.593Z,6.97
2022-10-29T07:53:02.261Z,5.63
2022-10-29T07:58:02.302Z,6.37
2022-10-29T08:00:30.124Z,5.70
2022-10-29T08:02:57.093Z,4.97
2022-10-29T08:05:25.020Z,5.10
2022-10-29T08:07:54.701Z,5.13
2022-10-29T08:10:22.454Z,5.17
2022-10-29T08:13:00.804Z,5.13
2022-10-29T08:15:30.346Z,4.90
2022-10-29T08:17:57.828Z,4.53
2022-10-29T08:20:26.520Z,5.23
2022-10-29T08:22:53.147Z,5.17
2022-10-29T08:25:19.757Z,4.83
2022-10-29T08:27:57.295Z,5.00
2022-10-29T08:30:23.864Z,4.07
2022-10-29T08:32:50.397Z,4.77
2022-10-29T08:35:16.929Z,4.30
2022-10-29T08:37:44.791Z,4.43
2022-10-29T08:40:30.351Z,4.37
2022-10-29T08:42:57.242Z,4.43
2022-10-29T08:45:46.488Z,5.13
2022-10-29T08:48:15.913Z,5.00
2022-10-29T08:50:52.672Z,4.57
2022-10-29T08:53:31.320Z,4.70
2022-10-29T08:56:00.263Z,4.37
2022-10-29T08:58:57.207Z,4.97
2022-10-29T09:01:24.295Z,4.18
2022-10-29T09:03:52.257Z,4.07
2022-10-29T09:06:47.169Z,4.28
2022-10-29T09:09:19.692Z,4.07
2022-10-29T09:12:07.906Z,4.47
2022-10-29T09:14:39.528Z,4.03
2022-10-29T09:17:37.956Z,4.45
2022-10-29T09:20:24.312Z,4.25
2022-10-29T09:23:19.010Z,4.95
2022-10-29T09:26:05.319Z,4.10
2022-10-29T09:28:57.596Z,4.13
2022-10-29T09:31:40.255Z,4.88
2022-10-29T09:34:14.403Z,3.72
2022-10-29T09:36:41.061Z,3.70
2022-10-29T09:39:14.117Z,4.25
2022-10-29T09:41:41.204Z,4.15
2022-10-29T09:44:20.697Z,3.97
2022-10-29T09:47:01.664Z,5.20
2022-10-29T09:49:50.234Z,3.92
2022-10-29T09:52:26.828Z,4.63
2022-10-29T09:54:55.232Z,4.85
2022-10-29T09:57:24.856Z,5.05
2022-10-29T09:59:57.789Z,5.10
2022-10-29T10:02:40.293Z,5.38
2022-10-29T10:05:14.322Z,4.97
2022-10-29T10:07:41.959Z,5.35
2022-10-29T10:10:22.249Z,5.22
2022-10-29T10:12:50.847Z,6.50
2022-10-29T10:15:28.199Z,8.35
2022-10-29T10:17:56.602Z,7.85
2022-10-29T10:20:41.709Z,9.00
2022-10-29T10:23:37.747Z,8.60
2022-10-29T10:26:05.565Z,8.68
2022-10-29T10:28:35.673Z,9.75
2022-10-29T10:31:12.158Z,10.02
2022-10-29T10:33:50.140Z,8.88
2022-10-29T10:36:18.168Z,9.85
2022-10-29T10:38:51.548Z,11.52
2022-10-29T10:41:28.257Z,11.65
2022-10-29T10:44:01.897Z,12.35
2022-10-29T10:46:35.597Z,10.50
2022-10-29T10:49:15.961Z,9.00
2022-10-29T10:51:52.193Z,5.53
2022-10-29T10:54:38.083Z,4.95
2022-10-29T10:57:17.556Z,4.20
2022-10-29T10:59:59.262Z,3.70
2022-10-29T11:02:35.110Z,4.15
2022-10-29T11:05:16.240Z,3.97
2022-10-29T11:07:49.180Z,4.03
2022-10-29T11:10:18.865Z,4.47
2022-10-29T11:12:53.516Z,4.72
2022-10-29T11:15:56.975Z,3.95
2022-10-29T11:18:44.750Z,4.32
2022-10-29T11:21:18.317Z,4.40
2022-10-29T11:23:52.110Z,4.32
2022-10-29T11:26:48.255Z,3.80
2022-10-29T11:29:52.887Z,3.80
2022-10-29T11:32:32.504Z,4.00
2022-10-29T11:35:08.525Z,4.38
2022-10-29T11:37:56.217Z,4.72
2022-10-29T11:40:24.157Z,3.72
2022-10-29T11:42:50.777Z,3.95
2022-10-29T11:45:36.007Z,4.50
2022-10-29T11:48:21.550Z,4.28
2022-10-29T11:51:11.671Z,5.10
2022-10-29T11:54:02.457Z,4.07
2022-10-29T11:56:57.897Z,4.07
2022-10-29T11:59:33.834Z,4.45
2022-10-29T12:02:25.856Z,3.80
2022-10-29T12:05:04.570Z,4.10
2022-10-29T12:07:37.208Z,4.20
2022-10-29T12:10:39.599Z,4.30
2022-10-29T12:13:12.762Z,4.03
2022-10-29T12:15:52.795Z,4.10
2022-10-29T12:18:35.803Z,4.63
2022-10-29T12:21:17.493Z,4.25
2022-10-29T12:24:26.189Z,4.10
2022-10-29T12:27:10.715Z,4.57
2022-10-29T12:29:53.086Z,4.20
2022-10-29T12:32:31.421Z,3.88
2022-10-29T12:35:22.193Z,4.07
2022-10-29T12:38:23.470Z,4.07
2022-10-29T12:40:55.028Z,4.13
2022-10-29T12:43:26.918Z,3.75
2022-10-29T12:46:19.170Z,3.90
2022-10-29T12:48:58.235Z,3.85
2022-10-29T12:51:43.804Z,3.50
2022-10-29T12:54:34.617Z,4.20
2022-10-29T12:57:18.380Z,2.97
2022-10-29T12:59:45.514Z,3.42
2022-10-29T13:02:21.384Z,4.18
2022-10-29T13:05:06.678Z,3.17
2022-10-29T13:07:34.450Z,3.47
2022-10-29T13:10:23.316Z,3.92
2022-10-29T13:13:13.124Z,4.20
2022-10-29T13:16:20.211Z,4.05
2022-10-29T13:19:08.483Z,3.63
2022-10-29T13:21:54.764Z,4.07
2022-10-29T13:24:21.604Z,3.88
2022-10-29T13:27:05.733Z,4.07
2022-10-29T13:30:11.944Z,3.58
2022-10-29T13:32:39.288Z,4.03
2022-10-29T13:35:26.568Z,3.63
2022-10-29T13:38:13.426Z,4.13
2022-10-29T13:41:05.116Z,3.55
2022-10-29T13:43:32.742Z,4.18
2022-10-29T13:46:07.563Z,3.75
2022-10-29T13:48:35.969Z,3.97
2022-10-29T13:51:10.386Z,4.32
2022-10-29T13:53:43.395Z,3.97
2022-10-29T13:56:13.563Z,3.70
2022-10-29T13:58:44.458Z,4.45
2022-10-29T14:01:16.540Z,5.00
2022-10-29T14:04:01.079Z,4.25
2022-10-29T14:06:39.467Z,4.28
2022-10-29T14:09:44.189Z,4.30
2022-10-29T14:12:17.289Z,4.63
2022-10-29T14:14:50.717Z,4.60
2022-10-29T14:17:19.033Z,4.70
2022-10-29T14:19:51.064Z,3.80
2022-10-29T14:22:33.206Z,4.47
2022-10-29T14:25:02.165Z,4.22
2022-10-29T14:27:29.749Z,4.63
2022-10-29T14:30:13.785Z,4.32
2022-10-29T14:32:40.775Z,4.93
2022-10-29T14:35:07.965Z,4.70
2022-10-29T14:37:40.551Z,4.60
2022-10-29T14:40:20.390Z,4.57
2022-10-29T14:42:54.245Z,4.13
2022-10-29T14:45:28.276Z,4.97
2022-10-29T14:47:57.569Z,5.10
2022-10-29T14:50:27.356Z,5.07
2022-10-29T14:53:01.377Z,4.50
2022-10-29T14:55:33.527Z,4.63
2022-10-29T14:58:12.292Z,5.65
2022-10-29T15:00:55.392Z,4.68
2022-10-29T15:03:24.099Z,4.25
2022-10-29T15:05:51.041Z,5.18
2022-10-29T15:08:29.364Z,4.75
2022-10-29T15:10:57.956Z,5.30
2022-10-29T15:13:27.560Z,5.30
2022-10-29T15:15:56.705Z,4.65
2022-10-29T15:18:24.601Z,4.50
2022-10-29T15:20:54.609Z,5.22
2022-10-29T15:23:28.581Z,5.25
2022-10-29T15:26:03.254Z,5.15
2022-10-29T15:28:36.856Z,5.63
2022-10-29T15:31:03.977Z,5.05
2022-10-29T15:33:31.575Z,5.63
2022-10-29T15:36:05.456Z,4.30
2022-10-29T15:38:34.651Z,4.05
2022-10-29T15:41:19.538Z,5.28
2022-10-29T15:43:51.682Z,5.28
2022-10-29T15:46:27.050Z,4.53
2022-10-29T15:48:53.807Z,4.70
2022-10-29T15:51:27.007Z,4.60
2022-10-29T15:53:56.662Z,4.27
2022-10-29T15:56:24.123Z,4.60
2022-10-29T15:58:52.298Z,4.40
2022-10-29T16:01:19.045Z,4.53
2022-10-29T16:03:45.840Z,4.87
2022-10-29T16:06:15.201Z,4.57
2022-10-29T16:08:44.264Z,4.77
2022-10-29T16:11:16.634Z,4.53
2022-10-29T16:13:43.264Z,5.30
2022-10-29T16:16:14.183Z,5.00
2022-10-29T16:18:40.699Z,5.40
2022-10-29T16:21:07.472Z,5.27
2022-10-29T16:23:38.215Z,5.10
2022-10-29T16:26:04.992Z,4.83
2022-10-29T16:28:31.535Z,4.90
2022-10-29T16:30:59.469Z,5.07
2022-10-29T16:33:26.560Z,5.00
2022-10-29T16:35:53.104Z,6.27
2022-10-29T16:38:19.698Z,4.53
2022-10-29T16:40:46.368Z,5.30
2022-10-29T16:43:12.977Z,5.10
2022-10-29T16:45:39.619Z,4.93
2022-10-29T16:48:06.492Z,5.57
2022-10-29T16:50:34.200Z,6.73
2022-10-29T16:53:11.248Z,5.23
2022-10-29T16:55:39.473Z,5.10
2022-10-29T16:58:12.693Z,4.77
2022-10-29T17:00:39.731Z,5.50
2022-10-29T17:03:10.128Z,4.60
2022-10-29T17:05:40.642Z,5.33
2022-10-29T17:08:07.365Z,5.60
2022-10-29T17:10:34.277Z,5.20
2022-10-29T17:13:01.440Z,5.57
2022-10-29T17:15:28.440Z,5.63
2022-10-29T17:17:55.105Z,5.30
2022-10-29T17:20:21.713Z,5.80
2022-10-29T17:22:48.318Z,6.00
2022-10-29T17:25:14.879Z,6.00
2022-10-29T17:27:42.042Z,5.23
2022-10-29T17:30:10.188Z,6.90
2022-10-29T17:32:36.920Z,6.17
2022-10-29T17:35:03.681Z,6.83
2022-10-29T17:37:30.244Z,6.20
2022-10-29T17:39:58.414Z,6.47
2022-10-29T17:42:27.022Z,5.90
2022-10-29T17:44:53.550Z,5.40
2022-10-29T17:47:21.620Z,5.20
2022-10-29T17:49:48.249Z,5.37
2022-10-29T17:52:14.836Z,5.03
2022-10-29T17:54:41.359Z,5.70
2022-10-29T17:57:07.938Z,4.80
2022-10-29T17:59:34.457Z,5.33
2022-10-29T18:02:01.226Z,4.83
2022-10-29T18:04:27.866Z,5.10
2022-10-29T18:06:56.011Z,4.47
2022-10-29T18:09:22.567Z,3.83
2022-10-29T18:11:50.269Z,4.30
2022-10-29T18:14:17.017Z,4.13
2022-10-29T18:16:43.564Z,4.40
2022-10-29T18:19:10.097Z,4.37
2022-10-29T18:21:36.653Z,4.00
2022-10-29T18:24:03.370Z,4.47
2022-10-29T18:26:35.136Z,4.87
2022-10-29T18:29:11.581Z,3.67
2022-10-29T18:31:40.062Z,5.07
2022-10-29T18:34:07.873Z,4.33
2022-10-29T18:36:38.777Z,4.63
2022-10-29T18:39:06.409Z,4.83
2022-10-29T18:41:34.224Z,4.33
2022-10-29T18:44:01.116Z,4.77
2022-10-29T18:46:27.769Z,4.50
2022-10-29T18:48:54.611Z,4.70
2022-10-29T18:51:24.758Z,4.73
2022-10-29T18:53:52.401Z,5.67
2022-10-29T18:56:21.285Z,4.77
2022-10-29T18:58:48.234Z,4.60
2022-10-29T19:01:17.309Z,5.27
2022-10-29T19:03:44.287Z,5.10
2022-10-29T19:06:12.820Z,5.33
2022-10-29T19:08:41.390Z,5.00
2022-10-29T19:11:10.546Z,5.00
2022-10-29T19:13:37.228Z,5.57
2022-10-29T19:16:06.074Z,5.70
2022-10-29T19:18:33.481Z,5.97
2022-10-29T19:21:16.993Z,5.70
2022-10-29T19:23:44.223Z,5.50
2022-10-29T19:26:16.263Z,5.60
2022-10-29T19:28:43.486Z,5.80
2022-10-29T19:31:12.723Z,5.73
2022-10-29T19:33:40.593Z,5.43
2022-10-29T19:36:09.271Z,5.17
2022-10-29T19:38:36.060Z,4.77
2022-10-29T19:41:02.678Z,5.60
2022-10-29T19:43:29.724Z,5.80
2022-10-29T19:45:56.400Z,5.60
2022-10-29T19:48:23.118Z,5.17
2022-10-29T19:50:53.783Z,5.63
2022-10-29T19:53:20.884Z,5.83
2022-10-29T19:55:50.292Z,5.80
2022-10-29T19:58:22.073Z,5.37
2022-10-29T20:00:49.197Z,5.83
2022-10-29T20:03:16.829Z,5.90
2022-10-29T20:05:44.877Z,5.73
2022-10-29T20:08:15.775Z,5.47
2022-10-29T20:10:43.128Z,5.53
2022-10-29T20:13:09.689Z,6.30
2022-10-29T20:15:38.919Z,6.63
2022-10-29T20:18:05.800Z,6.03
2022-10-29T20:20:32.364Z,6.30
2022-10-29T20:22:59.790Z,6.90
2022-10-29T20:25:27.052Z,6.57
2022-10-29T20:27:53.584Z,6.27
2022-10-29T20:30:20.232Z,6.30
2022-10-29T20:32:48.292Z,6.10
2022-10-29T20:35:15.217Z,6.13
2022-10-29T20:37:41.786Z,6.37
2022-10-29T20:40:09.145Z,7.17
2022-10-29T20:42:35.713Z,6.17
2022-10-29T20:45:02.261Z,6.50
2022-10-29T20:47:28.801Z,6.90
2022-10-29T20:49:55.369Z,6.43
2022-10-29T20:52:22.165Z,6.27
2022-10-29T20:54:48.685Z,6.23
2022-10-29T20:57:15.237Z,5.90
2022-10-29T20:59:41.955Z,6.07
2022-10-29T21:02:11.445Z,5.73
2022-10-29T21:04:38.742Z,5.40
2022-10-29T21:07:05.433Z,4.80
2022-10-29T21:09:31.953Z,5.40
2022-10-29T21:11:58.540Z,5.77
2022-10-29T21:14:27.334Z,5.93
2022-10-29T21:16:54.088Z,5.27
2022-10-29T21:19:20.643Z,4.90
2022-10-29T21:21:47.188Z,5.77
2022-10-29T21:24:13.741Z,6.00
2022-10-29T21:26:40.280Z,5.47
2022-10-29T21:29:07.060Z,5.57
2022-10-29T21:31:33.601Z,5.63
2022-10-29T21:34:00.267Z,5.70
2022-10-29T21:36:26.829Z,5.57
2022-10-29T21:38:53.545Z,5.20
2022-10-29T21:41:20.192Z,4.97
2022-10-29T21:43:46.784Z,6.27
2022-10-29T21:46:13.384Z,6.13
2022-10-29T21:48:39.933Z,6.23
2022-10-29T21:51:10.248Z,5.37
2022-10-29T21:53:37.312Z,4.83
2022-10-29T21:56:06.763Z,4.83
2022-10-29T21:58:33.800Z,5.30
2022-10-29T22:01:09.064Z,4.57
2022-10-29T22:03:37.071Z,5.27
2022-10-29T22:06:07.228Z,5.13
2022-10-29T22:08:34.526Z,5.80
2022-10-29T22:11:01.669Z,5.83
2022-10-29T22:13:29.439Z,5.20
2022-10-29T22:15:56.409Z,5.50
2022-10-29T22:18:23.922Z,5.70
2022-10-29T22:20:51.046Z,5.07
2022-10-29T22:23:17.759Z,4.60
2022-10-29T22:25:50.867Z,4.03
2022-10-29T22:28:17.531Z,5.00
2022-10-29T22:30:44.085Z,5.17
2022-10-29T22:33:10.691Z,4.63
2022-10-29T22:35:37.219Z,4.90
2022-10-29T22:38:03.779Z,5.00
2022-10-29T22:40:30.324Z,5.13
2022-10-29T22:42:57.256Z,4.70
2022-10-29T22:45:24.064Z,5.13
2022-10-29T22:47:50.634Z,5.23
2022-10-29T22:50:17.382Z,5.63
2022-10-29T22:52:44.406Z,5.30
2022-10-29T22:55:10.993Z,5.57
2022-10-29T22:57:37.529Z,5.00
2022-10-29T23:00:04.525Z,5.00
2022-10-29T23:02:31.099Z,5.27
2022-10-29T23:04:57.678Z,5.43
2022-10-29T23:07:24.246Z,4.53
2022-10-29T23:09:50.821Z,4.83
2022-10-29T23:12:17.361Z,5.53
2022-10-29T23:14:43.917Z,5.03
2022-10-29T23:17:10.669Z,5.27
2022-10-29T23:19:37.303Z,4.67
2022-10-29T23:22:03.899Z,4.90
2022-10-29T23:24:30.544Z,5.30
2022-10-29T23:26:57.068Z,4.50
2022-10-29T23:29:23.621Z,5.53
2022-10-29T23:31:50.162Z,5.17
2022-10-29T23:34:16.698Z,5.10
2022-10-29T23:36:43.308Z,5.20
2022-10-29T23:39:11.653Z,4.87
2022-10-29T23:41:38.217Z,5.27
2022-10-29T23:44:05.163Z,5.83
2022-10-29T23:46:31.709Z,4.80
2022-10-29T23:48:58.359Z,4.70
2022-10-29T23:51:24.962Z,5.00
2022-10-29T23:53:54.852Z,5.57
2022-10-29T23:56:24.115Z,5.03
2022-10-29T23:58:50.637Z,5.07
